createdAt,value
2023-02-27T00:00:29.959Z,5.03
2023-02-27T00:02:55.822Z,3.00
2023-02-27T00:05:24.587Z,3.63
2023-02-27T00:07:50.436Z,5.90
2023-02-27T00:10:16.913Z,4.20
2023-02-27T00:12:43.061Z,2.77
2023-02-27T00:15:10.149Z,4.53
2023-02-27T00:17:36.059Z,2.67
2023-02-27T00:20:02.558Z,4.50
2023-02-27T00:22:28.296Z,11.20
2023-02-27T00:24:54.088Z,4.57
2023-02-27T00:27:19.792Z,4.30
2023-02-27T00:29:45.610Z,5.47
2023-02-27T00:32:11.426Z,4.07
2023-02-27T00:34:37.206Z,2.57
2023-02-27T00:37:02.980Z,3.60
2023-02-27T00:39:28.780Z,4.00
2023-02-27T00:41:54.494Z,4.53
2023-02-27T00:44:20.213Z,5.30
2023-02-27T00:46:45.948Z,2.87
2023-02-27T00:49:11.689Z,6.67
2023-02-27T00:51:37.435Z,3.47
2023-02-27T00:54:03.190Z,3.90
2023-02-27T00:56:29.166Z,6.23
2023-02-27T00:58:54.875Z,4.37
2023-02-27T01:01:20.652Z,3.97
2023-02-27T01:03:46.474Z,3.27
2023-02-27T01:06:12.286Z,6.57
2023-02-27T01:08:38.040Z,2.33
2023-02-27T01:11:03.842Z,4.30
2023-02-27T01:13:29.589Z,3.80
2023-02-27T01:15:55.304Z,5.17
2023-02-27T01:18:21.024Z,3.07
2023-02-27T01:20:50.643Z,4.37
2023-02-27T01:23:16.355Z,4.67
2023-02-27T01:25:42.070Z,4.10
2023-02-27T01:28:08.153Z,5.37
2023-02-27T01:30:33.916Z,3.10
2023-02-27T01:32:59.665Z,6.00
2023-02-27T01:35:25.402Z,3.87
2023-02-27T01:37:51.134Z,1.97
2023-02-27T01:40:17.030Z,5.50
2023-02-27T01:42:42.896Z,3.37
2023-02-27T01:45:11.886Z,2.90
2023-02-27T01:47:39.484Z,5.27
2023-02-27T01:50:05.545Z,4.30
2023-02-27T01:52:31.912Z,4.97
2023-02-27T01:54:57.961Z,5.83
2023-02-27T01:57:23.739Z,3.13
2023-02-27T01:59:49.774Z,2.80
2023-02-27T02:02:19.026Z,7.07
2023-02-27T02:04:45.705Z,4.03
2023-02-27T02:07:14.081Z,5.13
2023-02-27T02:09:45.488Z,6.07
2023-02-27T02:12:12.692Z,6.13
2023-02-27T02:14:38.406Z,4.07
2023-02-27T02:17:04.102Z,6.53
2023-02-27T02:19:42.657Z,2.30
2023-02-27T02:22:26.959Z,3.10
2023-02-27T02:25:03.859Z,3.37
2023-02-27T02:27:48.652Z,3.03
2023-02-27T02:30:37.605Z,6.60
2023-02-27T02:33:09.533Z,3.30
2023-02-27T02:35:35.236Z,3.33
2023-02-27T02:38:16.304Z,3.60
2023-02-27T02:40:50.331Z,2.70
2023-02-27T02:43:26.401Z,2.07
2023-02-27T02:45:55.008Z,2.37
2023-02-27T02:48:28.001Z,5.10
2023-02-27T02:51:05.994Z,3.30
2023-02-27T02:53:40.929Z,2.57
2023-02-27T02:56:11.627Z,2.77
2023-02-27T02:58:44.656Z,3.60
2023-02-27T03:01:18.415Z,6.13
2023-02-27T03:03:48.083Z,3.07
2023-02-27T03:06:16.448Z,3.20
2023-02-27T03:08:45.574Z,3.40
2023-02-27T03:11:11.329Z,4.40
2023-02-27T03:13:41.234Z,4.87
2023-02-27T03:16:25.663Z,4.32
2023-02-27T03:19:03.380Z,4.03
2023-02-27T03:21:36.029Z,3.00
2023-02-27T03:24:04.145Z,4.40
2023-02-27T03:26:35.803Z,5.13
2023-02-27T03:29:05.778Z,2.77
2023-02-27T03:31:31.741Z,3.05
2023-02-27T03:34:01.865Z,4.53
2023-02-27T03:36:27.580Z,5.22
2023-02-27T03:39:28.901Z,3.87
2023-02-27T03:42:00.549Z,3.00
2023-02-27T03:44:45.027Z,4.07
2023-02-27T03:47:10.770Z,3.50
2023-02-27T03:49:36.521Z,3.63
2023-02-27T03:52:03.267Z,4.00
2023-02-27T03:54:31.715Z,4.27
2023-02-27T03:57:01.240Z,3.47
2023-02-27T03:59:27.236Z,6.27
2023-02-27T04:01:54.522Z,3.50
2023-02-27T04:04:20.342Z,7.43
2023-02-27T04:07:14.449Z,6.17
2023-02-27T04:09:40.155Z,3.27
2023-02-27T04:12:24.552Z,5.37
2023-02-27T04:14:57.598Z,5.33
2023-02-27T04:17:24.389Z,4.80
2023-02-27T04:19:59.763Z,4.97
2023-02-27T04:22:28.482Z,4.63
2023-02-27T04:25:04.405Z,3.83
2023-02-27T04:27:38.795Z,4.40
2023-02-27T04:30:27.312Z,7.13
2023-02-27T04:33:08.285Z,3.57
2023-02-27T04:35:43.809Z,4.63
2023-02-27T04:38:21.829Z,5.77
2023-02-27T04:41:07.838Z,5.23
2023-02-27T04:43:34.651Z,5.43
2023-02-27T04:46:00.999Z,8.67
2023-02-27T04:48:29.733Z,5.63
2023-02-27T04:51:14.139Z,6.83
2023-02-27T04:53:48.075Z,6.93
2023-02-27T04:56:16.747Z,3.73
2023-02-27T04:58:46.801Z,4.40
2023-02-27T05:01:16.277Z,4.15
2023-02-27T05:03:46.259Z,4.00
2023-02-27T05:06:13.832Z,5.10
2023-02-27T05:08:42.914Z,4.63
2023-02-27T05:11:11.326Z,7.80
2023-02-27T05:13:46.547Z,4.83
2023-02-27T05:16:24.188Z,7.13
2023-02-27T05:18:50.610Z,4.60
2023-02-27T05:21:22.219Z,4.83
2023-02-27T05:24:10.698Z,5.67
2023-02-27T05:26:55.079Z,7.60
2023-02-27T05:29:30.453Z,8.30
2023-02-27T05:32:02.496Z,6.03
2023-02-27T05:34:33.674Z,4.93
2023-02-27T05:37:01.771Z,5.10
2023-02-27T05:39:29.468Z,6.57
2023-02-27T05:42:00.799Z,5.83
2023-02-27T05:44:32.802Z,7.97
2023-02-27T05:46:59.994Z,4.23
2023-02-27T05:49:28.612Z,6.57
2023-02-27T05:51:55.104Z,7.57
2023-02-27T05:54:23.786Z,5.03
2023-02-27T05:56:51.277Z,4.33
2023-02-27T05:59:23.122Z,6.80
2023-02-27T06:01:49.017Z,5.70
2023-02-27T06:04:17.967Z,4.43
2023-02-27T06:06:43.835Z,6.33
2023-02-27T06:09:09.857Z,5.33
2023-02-27T06:11:36.108Z,3.90
2023-02-27T06:14:03.549Z,11.30
2023-02-27T06:16:29.929Z,8.30
2023-02-27T06:18:56.505Z,4.20
2023-02-27T06:21:22.275Z,8.17
2023-02-27T06:23:48.083Z,6.13
2023-02-27T06:26:15.697Z,5.73
2023-02-27T06:28:41.940Z,7.20
2023-02-27T06:31:07.947Z,4.50
2023-02-27T06:33:34.942Z,6.10
2023-02-27T06:36:00.857Z,9.43
2023-02-27T06:38:26.614Z,4.73
2023-02-27T06:40:52.450Z,6.13
2023-02-27T06:43:18.932Z,5.47
2023-02-27T06:45:44.738Z,8.80
2023-02-27T06:48:12.003Z,5.60
2023-02-27T06:50:37.874Z,4.37
2023-02-27T06:53:03.800Z,14.23
2023-02-27T06:55:29.723Z,24.77
2023-02-27T06:57:55.900Z,17.87
2023-02-27T07:00:22.035Z,34.77
2023-02-27T07:02:47.871Z,22.97
2023-02-27T07:05:17.524Z,10.83
2023-02-27T07:07:43.566Z,9.43
2023-02-27T07:10:11.402Z,14.70
2023-02-27T07:12:37.715Z,21.17
2023-02-27T07:15:04.418Z,11.73
2023-02-27T07:17:32.088Z,11.77
2023-02-27T07:19:59.090Z,6.67
2023-02-27T07:22:24.941Z,6.20
2023-02-27T07:24:50.674Z,6.20
2023-02-27T07:27:16.486Z,6.57
2023-02-27T07:29:42.590Z,5.87
2023-02-27T07:32:08.579Z,6.17
2023-02-27T07:34:34.419Z,8.00
2023-02-27T07:37:01.514Z,9.80
2023-02-27T07:39:29.465Z,6.63
2023-02-27T07:41:55.483Z,6.80
2023-02-27T07:44:21.469Z,6.93
2023-02-27T07:46:47.506Z,7.00
2023-02-27T07:49:13.867Z,21.23
2023-02-27T07:51:39.653Z,5.73
2023-02-27T07:54:05.476Z,5.90
2023-02-27T07:56:31.393Z,5.73
2023-02-27T07:58:57.275Z,6.30
2023-02-27T08:01:23.178Z,4.90
2023-02-27T08:03:49.044Z,3.73
2023-02-27T08:06:14.862Z,4.37
2023-02-27T08:08:52.300Z,4.07
2023-02-27T08:11:18.378Z,8.07
2023-02-27T08:14:00.163Z,6.20
2023-02-27T08:16:28.149Z,7.87
2023-02-27T08:18:54.488Z,5.23
2023-02-27T08:21:20.343Z,5.47
2023-02-27T08:23:47.364Z,5.17
2023-02-27T08:26:13.591Z,8.93
2023-02-27T08:28:40.602Z,7.37
2023-02-27T08:31:06.703Z,4.47
2023-02-27T08:33:33.146Z,6.47
2023-02-27T08:36:03.903Z,7.27
2023-02-27T08:40:56.227Z,6.90
2023-02-27T08:43:22.235Z,7.60
2023-02-27T08:45:48.633Z,4.63
2023-02-27T08:48:15.253Z,5.90
2023-02-27T08:50:45.469Z,9.10
2023-02-27T08:53:11.821Z,7.82
2023-02-27T08:55:37.723Z,7.97
2023-02-27T08:58:03.623Z,6.47
2023-02-27T09:00:31.951Z,4.20
2023-02-27T09:02:57.931Z,7.73
2023-02-27T09:05:23.852Z,6.82
2023-02-27T09:07:50.455Z,4.30
2023-02-27T09:10:17.215Z,5.75
2023-02-27T09:12:43.737Z,5.57
2023-02-27T09:15:10.725Z,5.60
2023-02-27T09:17:37.154Z,4.20
2023-02-27T09:22:46.319Z,5.05
2023-02-27T09:25:12.501Z,8.82
2023-02-27T09:27:38.286Z,5.55
2023-02-27T09:30:05.533Z,6.18
2023-02-27T09:32:32.222Z,8.57
2023-02-27T09:34:58.285Z,11.88
2023-02-27T09:37:24.933Z,5.93
2023-02-27T09:39:51.192Z,14.60
2023-02-27T09:42:18.869Z,8.50
2023-02-27T09:44:49.958Z,10.38
2023-02-27T09:47:36.685Z,6.47
2023-02-27T09:50:07.029Z,4.95
2023-02-27T09:52:35.138Z,4.82
2023-02-27T09:55:01.583Z,5.07
2023-02-27T09:57:32.304Z,7.35
2023-02-27T10:02:44.207Z,5.03
2023-02-27T10:05:42.320Z,4.10
2023-02-27T10:08:23.530Z,7.50
2023-02-27T10:11:00.404Z,5.55
2023-02-27T10:13:45.449Z,6.22
2023-02-27T10:16:16.440Z,5.13
2023-02-27T10:18:56.265Z,8.65
2023-02-27T10:21:25.072Z,7.72
2023-02-27T10:24:07.739Z,7.95
2023-02-27T10:26:38.061Z,8.77
2023-02-27T10:29:22.909Z,5.50
2023-02-27T10:31:52.861Z,5.45
2023-02-27T10:34:22.683Z,6.30
2023-02-27T10:36:48.634Z,8.83
2023-02-27T10:39:16.301Z,7.82
2023-02-27T10:41:43.106Z,5.32
2023-02-27T10:44:10.185Z,5.70
2023-02-27T10:46:41.471Z,9.90
2023-02-27T10:49:19.161Z,6.88
2023-02-27T10:51:46.548Z,8.70
2023-02-27T10:54:19.426Z,6.82
2023-02-27T10:56:47.090Z,8.43
2023-02-27T10:59:36.559Z,5.65
2023-02-27T11:02:23.584Z,7.13
2023-02-27T11:05:02.003Z,7.90
2023-02-27T11:07:36.119Z,5.03
2023-02-27T11:10:02.973Z,3.97
2023-02-27T11:12:30.543Z,5.60
2023-02-27T11:15:01.062Z,8.68
2023-02-27T11:17:28.813Z,5.82
2023-02-27T11:19:55.655Z,6.72
2023-02-27T11:22:26.277Z,5.35
2023-02-27T11:24:53.180Z,7.43
2023-02-27T11:27:21.875Z,6.63
2023-02-27T11:29:59.833Z,5.22
2023-02-27T11:32:28.522Z,11.02
2023-02-27T11:34:54.891Z,16.27
2023-02-27T11:37:23.409Z,10.02
2023-02-27T11:40:18.821Z,7.03
2023-02-27T11:42:46.945Z,4.95
2023-02-27T11:46:12.167Z,5.20
2023-02-27T11:48:21.153Z,3.55
2023-02-27T11:50:57.770Z,3.13
2023-02-27T11:53:23.552Z,5.43
2023-02-27T11:55:49.450Z,5.20
2023-02-27T11:58:19.949Z,4.95
2023-02-27T12:03:32.035Z,3.67
2023-02-27T12:06:00.384Z,4.53
2023-02-27T12:08:46.125Z,2.17
2023-02-27T12:11:15.013Z,2.25
2023-02-27T12:13:42.898Z,4.32
2023-02-27T12:16:33.929Z,5.78
2023-02-27T12:19:18.833Z,3.75
2023-02-27T12:21:55.654Z,5.18
2023-02-27T12:24:30.527Z,3.67
2023-02-27T12:27:15.986Z,4.20
2023-02-27T12:29:47.245Z,2.97
2023-02-27T12:32:19.306Z,2.72
2023-02-27T12:35:07.369Z,1.55
2023-02-27T12:37:33.515Z,2.33
2023-02-27T12:40:00.756Z,2.72
2023-02-27T12:42:43.881Z,3.70
2023-02-27T12:45:27.938Z,1.50
2023-02-27T12:47:57.266Z,2.50
2023-02-27T12:50:24.185Z,4.30
2023-02-27T12:53:02.185Z,5.00
2023-02-27T12:55:33.231Z,1.65
2023-02-27T12:58:05.155Z,4.40
2023-02-27T13:00:45.727Z,6.78
2023-02-27T13:03:23.448Z,6.93
2023-02-27T13:05:58.556Z,4.10
2023-02-27T13:08:40.363Z,1.05
2023-02-27T13:11:12.861Z,1.88
2023-02-27T13:13:46.307Z,1.67
2023-02-27T13:16:25.695Z,1.65
2023-02-27T13:18:56.960Z,4.85
2023-02-27T13:21:32.331Z,3.00
2023-02-27T13:24:18.412Z,2.03
2023-02-27T13:26:53.809Z,3.05
2023-02-27T13:29:21.297Z,3.28
2023-02-27T13:32:06.227Z,1.65
2023-02-27T13:35:02.456Z,3.50
2023-02-27T13:37:56.246Z,4.63
2023-02-27T13:40:38.914Z,3.17
2023-02-27T13:43:05.736Z,3.70
2023-02-27T13:45:50.602Z,3.85
2023-02-27T13:48:35.970Z,0.75
2023-02-27T13:51:02.542Z,3.00
2023-02-27T13:53:32.008Z,2.67
2023-02-27T13:56:18.707Z,7.10
2023-02-27T13:58:44.764Z,6.18
2023-02-27T14:01:18.909Z,1.67
2023-02-27T14:04:19.482Z,3.08
2023-02-27T14:06:46.723Z,1.70
2023-02-27T14:09:16.182Z,2.10
2023-02-27T14:11:51.811Z,2.22
2023-02-27T14:14:36.518Z,2.38
2023-02-27T14:19:48.550Z,1.90
2023-02-27T14:22:14.468Z,1.45
2023-02-27T14:25:06.464Z,7.65
2023-02-27T14:27:56.779Z,1.85
2023-02-27T14:30:28.942Z,3.08
2023-02-27T14:38:59.132Z,2.85
2023-02-27T14:47:27.138Z,2.80
2023-02-27T14:58:21.938Z,1.50
2023-02-27T15:01:10.113Z,1.00
2023-02-27T15:04:29.662Z,1.80
2023-02-27T15:07:00.217Z,1.98
2023-02-27T15:12:29.327Z,4.70
2023-02-27T15:17:36.173Z,6.38
2023-02-27T15:20:07.261Z,3.42
2023-02-27T15:22:40.305Z,1.65
2023-02-27T15:25:10.379Z,2.00
2023-02-27T15:27:40.820Z,4.00
2023-02-27T15:32:50.113Z,2.35
2023-02-27T15:38:35.131Z,1.58
2023-02-27T15:41:03.089Z,1.85
2023-02-27T15:43:40.893Z,1.88
2023-02-27T15:46:08.528Z,1.15
2023-02-27T15:48:35.162Z,4.53
2023-02-27T15:51:02.834Z,5.32
2023-02-27T15:53:35.178Z,6.13
2023-02-27T15:56:06.028Z,3.75
2023-02-27T15:58:38.721Z,5.35
2023-02-27T16:01:10.103Z,4.60
2023-02-27T16:04:26.205Z,3.55
2023-02-27T16:07:02.563Z,3.55
2023-02-27T16:12:29.373Z,4.60
2023-02-27T16:15:12.283Z,3.25
2023-02-27T16:20:29.556Z,3.20
2023-02-27T16:26:03.262Z,2.92
2023-02-27T16:28:37.263Z,2.53
2023-02-27T16:31:08.306Z,1.85
2023-02-27T16:36:58.177Z,3.63
2023-02-27T16:39:28.516Z,3.85
2023-02-27T16:41:56.884Z,4.10
2023-02-27T16:44:23.777Z,2.40
2023-02-27T16:46:50.186Z,2.33
2023-02-27T16:49:20.104Z,2.38
2023-02-27T16:51:46.608Z,4.07
2023-02-27T16:54:18.856Z,4.10
2023-02-27T16:56:45.898Z,1.27
2023-02-27T16:59:28.765Z,1.38
2023-02-27T17:01:56.194Z,2.90
2023-02-27T17:04:35.920Z,3.45
2023-02-27T17:07:06.376Z,3.33
2023-02-27T17:12:05.179Z,3.60
2023-02-27T17:14:31.015Z,4.45
2023-02-27T17:16:59.038Z,3.97
2023-02-27T17:19:27.753Z,3.33
2023-02-27T17:21:53.620Z,3.17
2023-02-27T17:24:20.263Z,4.70
2023-02-27T17:29:30.040Z,1.90
2023-02-27T17:31:56.858Z,4.78
2023-02-27T17:34:32.005Z,4.95
2023-02-27T17:36:58.309Z,8.45
2023-02-27T17:39:24.486Z,4.82
2023-02-27T17:41:52.362Z,8.80
2023-02-27T17:44:21.267Z,13.15
2023-02-27T17:46:47.239Z,5.25
2023-02-27T17:49:13.166Z,7.15
2023-02-27T17:51:39.027Z,8.00
2023-02-27T17:54:06.131Z,11.48
2023-02-27T17:56:32.115Z,6.60
2023-02-27T17:58:58.209Z,7.15
2023-02-27T18:01:26.506Z,5.78
2023-02-27T18:04:06.276Z,7.35
2023-02-27T18:06:32.297Z,8.60
2023-02-27T18:08:58.507Z,3.42
2023-02-27T18:11:24.365Z,3.30
2023-02-27T18:13:50.515Z,10.25
2023-02-27T18:16:16.977Z,7.43
2023-02-27T18:18:43.248Z,4.45
2023-02-27T18:21:14.539Z,6.03
2023-02-27T18:23:40.429Z,9.45
2023-02-27T18:26:07.064Z,5.35
2023-02-27T18:28:33.146Z,5.95
2023-02-27T18:31:00.384Z,8.18
2023-02-27T18:33:27.060Z,9.00
2023-02-27T18:35:54.370Z,7.35
2023-02-27T18:38:20.172Z,9.88
2023-02-27T18:40:46.143Z,6.35
2023-02-27T18:43:13.247Z,6.05
2023-02-27T18:45:40.435Z,5.85
2023-02-27T18:48:06.787Z,6.22
2023-02-27T18:50:33.101Z,7.10
2023-02-27T18:52:59.859Z,5.88
2023-02-27T18:55:26.112Z,7.53
2023-02-27T18:57:52.090Z,4.88
2023-02-27T19:00:18.518Z,5.50
2023-02-27T19:02:44.591Z,9.30
2023-02-27T19:05:19.489Z,10.15
2023-02-27T19:07:45.479Z,12.43
2023-02-27T19:10:11.971Z,8.32
2023-02-27T19:12:38.480Z,7.97
2023-02-27T19:15:04.669Z,10.95
2023-02-27T19:17:30.587Z,12.38
2023-02-27T19:19:56.413Z,10.73
2023-02-27T19:22:22.412Z,10.10
2023-02-27T19:24:49.126Z,9.68
2023-02-27T19:27:16.500Z,15.75
2023-02-27T19:29:42.676Z,9.27
2023-02-27T19:32:09.268Z,12.50
2023-02-27T19:34:40.201Z,13.02
2023-02-27T19:37:07.278Z,9.88
2023-02-27T19:39:33.469Z,8.60
2023-02-27T19:41:59.470Z,8.57
2023-02-27T19:44:26.005Z,9.63
2023-02-27T19:46:52.362Z,8.20
2023-02-27T19:49:18.329Z,8.48
2023-02-27T19:51:44.178Z,13.80
2023-02-27T19:54:13.551Z,12.13
2023-02-27T19:56:39.448Z,12.27
2023-02-27T19:59:05.223Z,14.45
2023-02-27T20:01:32.103Z,16.23
2023-02-27T20:03:58.618Z,11.50
2023-02-27T20:06:29.419Z,13.68
2023-02-27T20:08:57.034Z,14.80
2023-02-27T20:11:23.515Z,10.95
2023-02-27T20:13:50.229Z,6.05
2023-02-27T20:16:17.230Z,10.45
2023-02-27T20:18:43.248Z,7.18
2023-02-27T20:21:10.694Z,9.65
2023-02-27T20:23:38.284Z,7.00
2023-02-27T20:26:13.186Z,5.90
2023-02-27T20:28:39.067Z,6.18
2023-02-27T20:31:09.540Z,7.70
2023-02-27T20:33:36.068Z,5.63
2023-02-27T20:36:04.076Z,9.97
2023-02-27T20:38:31.722Z,6.63
2023-02-27T20:40:57.707Z,6.30
2023-02-27T20:43:23.712Z,5.85
2023-02-27T20:45:49.677Z,4.67
2023-02-27T20:48:16.047Z,6.33
2023-02-27T20:50:42.283Z,5.47
2023-02-27T20:53:08.220Z,5.60
2023-02-27T20:55:34.051Z,6.83
2023-02-27T20:57:59.833Z,9.43
2023-02-27T21:00:26.269Z,9.00
2023-02-27T21:02:52.670Z,5.93
2023-02-27T21:05:21.933Z,5.30
2023-02-27T21:07:47.741Z,5.60
2023-02-27T21:10:13.496Z,6.00
2023-02-27T21:12:40.524Z,6.63
2023-02-27T21:15:06.813Z,11.90
2023-02-27T21:17:32.687Z,8.63
2023-02-27T21:19:58.539Z,5.83
2023-02-27T21:22:24.390Z,8.17
2023-02-27T21:24:51.769Z,7.60
2023-02-27T21:27:20.138Z,7.67
2023-02-27T21:29:46.228Z,5.40
2023-02-27T21:32:12.030Z,6.80
2023-02-27T21:34:37.776Z,9.10
2023-02-27T21:37:05.562Z,8.83
2023-02-27T21:39:31.411Z,6.23
2023-02-27T21:41:58.954Z,7.23
2023-02-27T21:44:25.372Z,5.80
2023-02-27T21:46:52.077Z,9.60
2023-02-27T21:49:20.192Z,7.60
2023-02-27T21:51:46.910Z,6.93
2023-02-27T21:54:13.762Z,6.63
2023-02-27T21:56:40.320Z,10.37
2023-02-27T21:59:06.480Z,7.07
2023-02-27T22:01:33.258Z,8.23
2023-02-27T22:04:04.495Z,6.87
2023-02-27T22:06:34.166Z,5.50
2023-02-27T22:09:01.593Z,6.82
2023-02-27T22:11:28.165Z,8.07
2023-02-27T22:13:54.095Z,10.47
2023-02-27T22:16:20.564Z,7.60
2023-02-27T22:18:46.929Z,7.07
2023-02-27T22:21:15.545Z,8.77
2023-02-27T22:23:41.399Z,9.17
2023-02-27T22:26:08.569Z,9.20
2023-02-27T22:28:34.747Z,13.77
2023-02-27T22:31:10.926Z,8.57
2023-02-27T22:33:37.074Z,6.37
2023-02-27T22:36:09.649Z,10.57
2023-02-27T22:38:35.622Z,10.13
2023-02-27T22:41:09.079Z,13.43
2023-02-27T22:43:34.939Z,11.10
2023-02-27T22:46:01.501Z,8.97
2023-02-27T22:48:27.586Z,10.83
2023-02-27T22:50:57.591Z,9.67
2023-02-27T22:53:23.575Z,8.57
2023-02-27T22:55:53.411Z,8.97
2023-02-27T22:58:19.194Z,10.75
2023-02-27T23:00:45.195Z,10.57
2023-02-27T23:03:10.943Z,8.30
2023-02-27T23:05:43.132Z,9.87
2023-02-27T23:08:08.849Z,11.37
2023-02-27T23:10:34.896Z,8.20
2023-02-27T23:13:00.588Z,12.17
2023-02-27T23:15:26.333Z,6.67
2023-02-27T23:17:58.473Z,8.27
2023-02-27T23:20:24.540Z,10.40
2023-02-27T23:22:51.463Z,10.07
2023-02-27T23:25:17.622Z,8.93
2023-02-27T23:27:43.369Z,11.13
2023-02-27T23:30:09.866Z,11.17
2023-02-27T23:32:42.825Z,9.87
2023-02-27T23:35:12.231Z,7.60
2023-02-27T23:37:38.448Z,8.73
2023-02-27T23:40:06.032Z,9.37
2023-02-27T23:42:50.996Z,10.27
2023-02-27T23:45:22.497Z,9.57
2023-02-27T23:47:51.241Z,14.17
2023-02-27T23:50:19.448Z,12.53
2023-02-27T23:52:45.751Z,8.57
2023-02-27T23:55:11.480Z,11.07
2023-02-27T23:57:37.208Z,12.10
